createdAt,value
2018-07-24T00:02:21.677Z,99852.00
2018-07-24T00:04:51.786Z,99855.00
2018-07-24T00:07:21.765Z,99851.00
2018-07-24T00:09:51.825Z,99854.00
2018-07-24T00:12:21.835Z,99848.00
2018-07-24T00:14:51.838Z,99848.00
2018-07-24T00:17:21.864Z,99850.00
2018-07-24T00:19:51.901Z,99847.00
2018-07-24T00:22:21.934Z,99850.00
2018-07-24T00:24:51.973Z,99850.00
2018-07-24T00:27:21.990Z,99849.00
2018-07-24T00:29:51.905Z,99846.00
2018-07-24T00:32:21.765Z,99848.00
2018-07-24T00:34:51.554Z,99844.00
2018-07-24T00:37:21.450Z,99843.00
2018-07-24T00:39:51.293Z,99841.00
2018-07-24T00:42:21.225Z,99840.00
2018-07-24T00:44:51.238Z,99838.00
2018-07-24T00:47:21.254Z,99835.00
2018-07-24T00:49:51.298Z,99832.00
2018-07-24T00:52:21.341Z,99828.00
2018-07-24T00:54:51.337Z,99829.00
2018-07-24T00:57:21.237Z,99825.00
2018-07-24T00:59:51.106Z,99826.00
2018-07-24T01:02:21.145Z,99827.00
2018-07-24T01:04:50.889Z,99823.00
2018-07-24T01:07:20.797Z,99821.00
2018-07-24T01:09:50.552Z,99814.00
2018-07-24T01:12:20.545Z,99821.00
2018-07-24T01:14:50.639Z,99818.00
2018-07-24T01:17:20.593Z,99816.00
2018-07-24T01:19:50.478Z,99811.00
2018-07-24T01:22:20.602Z,99813.00
2018-07-24T01:24:50.409Z,99813.00
2018-07-24T01:27:20.247Z,99810.00
2018-07-24T01:29:50.349Z,99808.00
2018-07-24T01:32:20.558Z,99808.00
2018-07-24T01:34:50.799Z,99808.00
2018-07-24T01:37:20.804Z,99808.00
2018-07-24T01:39:50.795Z,99807.00
2018-07-24T01:42:20.762Z,99803.00
2018-07-24T01:44:50.810Z,99802.00
2018-07-24T01:47:20.962Z,99804.00
2018-07-24T01:49:51.058Z,99804.00
2018-07-24T01:52:21.071Z,99801.00
2018-07-24T01:54:51.047Z,99798.00
2018-07-24T01:57:21.183Z,99801.00
2018-07-24T01:59:50.937Z,99797.00
2018-07-24T02:02:20.627Z,99799.00
2018-07-24T02:04:50.641Z,99800.00
2018-07-24T02:07:20.672Z,99792.00
2018-07-24T02:09:50.788Z,99795.00
2018-07-24T02:12:21.081Z,99793.00
2018-07-24T02:14:51.092Z,99792.00
2018-07-24T02:17:21.132Z,99793.00
2018-07-24T02:19:51.219Z,99789.00
2018-07-24T02:22:21.275Z,99788.00
2018-07-24T02:24:51.654Z,99782.00
2018-07-24T02:27:21.743Z,99779.00
2018-07-24T02:29:51.721Z,99777.00
2018-07-24T02:32:21.760Z,99773.00
2018-07-24T02:34:51.835Z,99775.00
2018-07-24T02:37:21.948Z,99772.00
2018-07-24T02:39:51.975Z,99766.00
2018-07-24T02:42:21.990Z,99767.00
2018-07-24T02:44:52.174Z,99762.00
2018-07-24T02:47:22.147Z,99757.00
2018-07-24T02:49:52.158Z,99765.00
2018-07-24T02:52:21.904Z,99763.00
2018-07-24T02:54:51.807Z,99762.00
2018-07-24T02:57:21.855Z,99763.00
2018-07-24T02:59:52.016Z,99762.00
2018-07-24T03:02:22.071Z,99767.00
2018-07-24T03:04:52.224Z,99763.00
2018-07-24T03:07:22.266Z,99762.00
2018-07-24T03:09:52.274Z,99762.00
2018-07-24T03:12:22.303Z,99763.00
2018-07-24T03:14:52.308Z,99763.00
2018-07-24T03:17:22.465Z,99760.00
2018-07-24T03:19:52.415Z,99766.00
2018-07-24T03:22:22.745Z,99759.00
2018-07-24T03:24:52.776Z,99763.00
2018-07-24T03:27:22.807Z,99768.00
2018-07-24T03:29:52.833Z,99768.00
2018-07-24T03:32:22.894Z,99770.00
2018-07-24T03:34:52.939Z,99769.00
2018-07-24T03:37:22.979Z,99768.00
2018-07-24T03:39:53.011Z,99776.00
2018-07-24T03:42:22.990Z,99779.00
2018-07-24T03:44:53.082Z,99777.00
2018-07-24T03:47:22.853Z,99774.00
2018-07-24T03:49:52.779Z,99778.00
2018-07-24T03:52:22.858Z,99776.00
2018-07-24T03:54:52.990Z,99773.00
2018-07-24T03:57:23.023Z,99779.00
2018-07-24T03:59:53.123Z,99771.00
2018-07-24T04:02:23.171Z,99776.00
2018-07-24T04:04:53.179Z,99780.00
2018-07-24T04:07:23.194Z,99779.00
2018-07-24T04:09:53.176Z,99782.00
2018-07-24T04:12:23.304Z,99786.00
2018-07-24T04:14:53.394Z,99782.00
2018-07-24T04:17:23.450Z,99787.00
2018-07-24T04:19:53.419Z,99785.00
2018-07-24T04:22:23.218Z,99782.00
2018-07-24T04:24:52.818Z,99786.00
2018-07-24T04:27:22.714Z,99782.00
2018-07-24T04:29:52.743Z,99777.00
2018-07-24T04:32:22.878Z,99787.00
2018-07-24T04:34:52.855Z,99783.00
2018-07-24T04:37:22.866Z,99787.00
2018-07-24T04:39:52.948Z,99784.00
2018-07-24T04:42:22.826Z,99780.00
2018-07-24T04:44:52.915Z,99782.00
2018-07-24T04:47:22.919Z,99786.00
2018-07-24T04:49:52.902Z,99786.00
2018-07-24T04:52:22.638Z,99782.00
2018-07-24T04:54:52.511Z,99781.00
2018-07-24T04:57:22.499Z,99785.00
2018-07-24T04:59:52.764Z,99781.00
2018-07-24T05:02:22.863Z,99786.00
2018-07-24T05:04:52.975Z,99782.00
2018-07-24T05:07:23.003Z,99779.00
2018-07-24T05:09:53.072Z,99777.00
2018-07-24T05:12:23.020Z,99785.00
2018-07-24T05:14:52.999Z,99783.00
2018-07-24T05:17:23.002Z,99787.00
2018-07-24T05:19:52.775Z,99784.00
2018-07-24T05:22:22.632Z,99788.00
2018-07-24T05:24:52.726Z,99789.00
2018-07-24T05:27:22.699Z,99789.00
2018-07-24T05:29:52.678Z,99791.00
2018-07-24T05:32:22.681Z,99790.00
2018-07-24T05:34:52.636Z,99792.00
2018-07-24T05:37:22.656Z,99785.00
2018-07-24T05:39:52.751Z,99784.00
2018-07-24T05:42:22.882Z,99781.00
2018-07-24T05:44:53.063Z,99773.00
2018-07-24T05:47:23.066Z,99777.00
2018-07-24T05:49:53.087Z,99774.00
2018-07-24T05:52:23.019Z,99776.00
2018-07-24T05:54:52.876Z,99779.00
2018-07-24T05:57:22.699Z,99776.00
2018-07-24T05:59:52.756Z,99775.00
2018-07-24T06:02:22.734Z,99771.00
2018-07-24T06:04:52.779Z,99774.00
2018-07-24T06:07:22.945Z,99777.00
2018-07-24T06:09:52.642Z,99778.00
2018-07-24T06:12:22.543Z,99774.00
2018-07-24T06:14:52.512Z,99770.00
2018-07-24T06:17:22.266Z,99769.00
2018-07-24T06:19:52.057Z,99772.00
2018-07-24T06:22:22.082Z,99774.00
2018-07-24T06:24:52.098Z,99772.00
2018-07-24T06:27:22.174Z,99763.00
2018-07-24T06:29:52.169Z,99764.00
2018-07-24T06:32:22.166Z,99760.00
2018-07-24T06:34:52.185Z,99766.00
2018-07-24T06:37:21.938Z,99758.00
2018-07-24T06:39:51.899Z,99762.00
2018-07-24T06:42:21.824Z,99761.00
2018-07-24T06:44:51.731Z,99760.00
2018-07-24T06:47:21.670Z,99760.00
2018-07-24T06:49:51.759Z,99763.00
2018-07-24T06:52:21.942Z,99763.00
2018-07-24T06:54:51.721Z,99762.00
2018-07-24T06:57:21.650Z,99763.00
2018-07-24T06:59:51.653Z,99764.00
2018-07-24T07:02:21.780Z,99761.00
2018-07-24T07:04:51.863Z,99762.00
2018-07-24T07:07:21.913Z,99757.00
2018-07-24T07:09:51.922Z,99755.00
2018-07-24T07:12:21.938Z,99747.00
2018-07-24T07:14:51.991Z,99744.00
2018-07-24T07:17:22.077Z,99740.00
2018-07-24T07:19:52.123Z,99738.00
2018-07-24T07:22:22.152Z,99738.00
2018-07-24T07:24:52.144Z,99729.00
2018-07-24T07:27:22.274Z,99725.00
2018-07-24T07:29:52.246Z,99723.00
2018-07-24T07:32:22.293Z,99719.00
2018-07-24T07:34:52.241Z,99716.00
2018-07-24T07:37:22.203Z,99719.00
2018-07-24T07:39:52.158Z,99720.00
2018-07-24T07:42:22.118Z,99721.00
2018-07-24T07:44:52.075Z,99716.00
2018-07-24T07:47:22.035Z,99714.00
2018-07-24T07:49:51.773Z,99714.00
2018-07-24T07:52:21.675Z,99715.00
2018-07-24T07:54:51.614Z,99715.00
2018-07-24T07:57:21.403Z,99721.00
2018-07-24T07:59:51.266Z,99716.00
2018-07-24T08:02:21.278Z,99717.00
2018-07-24T08:04:51.254Z,99716.00
2018-07-24T08:07:21.218Z,99712.00
2018-07-24T08:09:51.281Z,99712.00
2018-07-24T08:12:21.333Z,99712.00
2018-07-24T08:14:51.327Z,99710.00
2018-07-24T08:17:21.359Z,99713.00
2018-07-24T08:19:51.425Z,99713.00
2018-07-24T08:22:21.479Z,99710.00
2018-07-24T08:24:51.494Z,99706.00
2018-07-24T08:27:21.807Z,99700.00
2018-07-24T08:29:51.833Z,99709.00
2018-07-24T08:32:21.811Z,99705.00
2018-07-24T08:34:51.947Z,99703.00
2018-07-24T08:37:22.073Z,99702.00
2018-07-24T08:39:52.210Z,99705.00
2018-07-24T08:42:22.228Z,99709.00
2018-07-24T08:44:52.335Z,99701.00
2018-07-24T08:47:22.246Z,99701.00
2018-07-24T08:49:52.336Z,99701.00
2018-07-24T08:52:22.345Z,99700.00
2018-07-24T08:54:52.727Z,99705.00
2018-07-24T08:57:22.405Z,99701.00
2018-07-24T08:59:52.482Z,99698.00
2018-07-24T09:02:22.447Z,99696.00
2018-07-24T09:04:52.506Z,99692.00
2018-07-24T09:07:22.341Z,99693.00
2018-07-24T09:09:52.302Z,99683.00
2018-07-24T09:12:22.453Z,99680.00
2018-07-24T09:14:52.789Z,99683.00
2018-07-24T09:17:22.602Z,99676.00
2018-07-24T09:19:52.778Z,99675.00
2018-07-24T09:22:23.693Z,99673.00
2018-07-24T09:24:53.786Z,99674.00
2018-07-24T09:27:23.777Z,99677.00
2018-07-24T09:29:53.870Z,99662.00
2018-07-24T09:32:24.370Z,99664.00
2018-07-24T09:34:54.588Z,99669.00
2018-07-24T09:37:24.738Z,99664.00
2018-07-24T09:39:54.736Z,99660.00
2018-07-24T09:42:24.706Z,99666.00
2018-07-24T09:44:54.711Z,99666.00
2018-07-24T09:47:25.038Z,99661.00
2018-07-24T09:49:55.042Z,99656.00
2018-07-24T09:52:25.103Z,99658.00
2018-07-24T09:54:55.228Z,99656.00
2018-07-24T09:57:25.246Z,99652.00
2018-07-24T09:59:55.054Z,99643.00
2018-07-24T10:02:24.990Z,99649.00
2018-07-24T10:04:55.142Z,99645.00
2018-07-24T10:07:25.200Z,99638.00
2018-07-24T10:09:55.199Z,99640.00
2018-07-24T10:12:25.215Z,99639.00
2018-07-24T10:14:55.306Z,99639.00
2018-07-24T10:17:25.367Z,99643.00
2018-07-24T10:19:55.360Z,99634.00
2018-07-24T10:22:25.453Z,99630.00
2018-07-24T10:24:55.334Z,99627.00
2018-07-24T10:27:25.341Z,99619.00
2018-07-24T10:29:55.322Z,99620.00
2018-07-24T10:32:25.454Z,99610.00
2018-07-24T10:34:56.069Z,99615.00
2018-07-24T10:37:26.046Z,99608.00
2018-07-24T10:39:55.897Z,99603.00
2018-07-24T10:42:25.866Z,99606.00
2018-07-24T10:44:55.959Z,99599.00
2018-07-24T10:47:25.698Z,99599.00
2018-07-24T10:49:55.495Z,99596.00
2018-07-24T10:52:25.427Z,99596.00
2018-07-24T10:54:55.783Z,99597.00
2018-07-24T10:57:25.739Z,99595.00
2018-07-24T10:59:55.766Z,99588.00
2018-07-24T11:02:25.715Z,99584.00
2018-07-24T11:04:55.737Z,99577.00
2018-07-24T11:07:25.759Z,99582.00
2018-07-24T11:09:55.707Z,99581.00
2018-07-24T11:12:25.712Z,99584.00
2018-07-24T11:14:55.669Z,99582.00
2018-07-24T11:17:25.605Z,99580.00
2018-07-24T11:19:55.562Z,99577.00
2018-07-24T11:22:25.793Z,99572.00
2018-07-24T11:24:55.642Z,99573.00
2018-07-24T11:27:25.642Z,99566.00
2018-07-24T11:29:55.534Z,99569.00
2018-07-24T11:32:25.475Z,99566.00
2018-07-24T11:34:55.526Z,99562.00
2018-07-24T11:37:25.498Z,99563.00
2018-07-24T11:39:55.478Z,99554.00
2018-07-24T11:42:25.924Z,99561.00
2018-07-24T11:44:55.999Z,99552.00
2018-07-24T11:47:25.944Z,99549.00
2018-07-24T11:49:56.040Z,99550.00
2018-07-24T11:52:25.950Z,99540.00
2018-07-24T11:54:55.947Z,99536.00
2018-07-24T11:57:25.920Z,99532.00
2018-07-24T11:59:55.891Z,99535.00
2018-07-24T12:02:25.958Z,99528.00
2018-07-24T12:04:55.909Z,99524.00
2018-07-24T12:07:25.839Z,99521.00
2018-07-24T12:09:56.023Z,99521.00
2018-07-24T12:12:25.932Z,99519.00
2018-07-24T12:14:55.954Z,99525.00
2018-07-24T12:17:25.851Z,99522.00
2018-07-24T12:19:55.796Z,99524.00
2018-07-24T12:22:25.799Z,99522.00
2018-07-24T12:24:55.717Z,99524.00
2018-07-24T12:27:25.681Z,99523.00
2018-07-24T12:29:55.638Z,99517.00
2018-07-24T12:32:25.566Z,99517.00
2018-07-24T12:34:55.758Z,99508.00
2018-07-24T12:37:25.713Z,99507.00
2018-07-24T12:39:55.689Z,99505.00
2018-07-24T12:42:25.630Z,99499.00
2018-07-24T12:44:55.858Z,99501.00
2018-07-24T12:47:25.798Z,99497.00
2018-07-24T12:49:55.757Z,99500.00
2018-07-24T12:52:25.712Z,99499.00
2018-07-24T12:54:55.855Z,99497.00
2018-07-24T12:57:25.876Z,99495.00
2018-07-24T12:59:55.807Z,99499.00
2018-07-24T13:02:25.718Z,99488.00
2018-07-24T13:04:55.659Z,99492.00
2018-07-24T13:07:25.643Z,99489.00
2018-07-24T13:09:55.678Z,99485.00
2018-07-24T13:12:25.544Z,99487.00
2018-07-24T13:14:55.542Z,99478.00
2018-07-24T13:17:25.631Z,99477.00
2018-07-24T13:19:55.522Z,99480.00
2018-07-24T13:22:25.455Z,99477.00
2018-07-24T13:24:55.401Z,99474.00
2018-07-24T13:27:25.357Z,99467.00
2018-07-24T13:29:55.397Z,99463.00
2018-07-24T13:32:25.316Z,99466.00
2018-07-24T13:34:55.322Z,99463.00
2018-07-24T13:37:25.347Z,99459.00
2018-07-24T13:39:55.322Z,99462.00
2018-07-24T13:42:25.275Z,99458.00
2018-07-24T13:44:55.372Z,99459.00
2018-07-24T13:47:25.419Z,99458.00
2018-07-24T13:49:55.394Z,99460.00
2018-07-24T13:52:25.337Z,99458.00
2018-07-24T13:54:55.319Z,99458.00
2018-07-24T13:57:25.362Z,99460.00
2018-07-24T13:59:55.399Z,99459.00
2018-07-24T14:02:25.311Z,99462.00
2018-07-24T14:04:55.316Z,99456.00
2018-07-24T14:07:25.819Z,99453.00
2018-07-24T14:09:55.811Z,99449.00
2018-07-24T14:12:25.718Z,99455.00
2018-07-24T14:14:55.698Z,99446.00
2018-07-24T14:17:25.811Z,99449.00
2018-07-24T14:19:55.915Z,99453.00
2018-07-24T14:22:25.831Z,99444.00
2018-07-24T14:24:55.884Z,99441.00
2018-07-24T14:27:25.806Z,99439.00
2018-07-24T14:29:55.778Z,99431.00
2018-07-24T14:32:25.763Z,99428.00
2018-07-24T14:34:55.728Z,99427.00
2018-07-24T14:37:25.823Z,99422.00
2018-07-24T14:39:55.839Z,99423.00
2018-07-24T14:42:25.878Z,99425.00
2018-07-24T14:44:55.882Z,99420.00
2018-07-24T14:47:25.822Z,99422.00
2018-07-24T14:49:55.807Z,99420.00
2018-07-24T14:52:25.775Z,99419.00
2018-07-24T14:54:55.868Z,99413.00
2018-07-24T14:57:25.951Z,99416.00
2018-07-24T14:59:55.978Z,99418.00
2018-07-24T15:02:25.911Z,99416.00
2018-07-24T15:04:55.892Z,99419.00
2018-07-24T15:07:25.820Z,99410.00
2018-07-24T15:09:55.998Z,99410.00
2018-07-24T15:12:25.948Z,99410.00
2018-07-24T15:14:55.922Z,99405.00
2018-07-24T15:17:25.885Z,99401.00
2018-07-24T15:19:56.256Z,99405.00
2018-07-24T15:22:26.178Z,99403.00
2018-07-24T15:24:56.035Z,99397.00
2018-07-24T15:27:25.786Z,99396.00
2018-07-24T15:29:56.019Z,99397.00
2018-07-24T15:32:25.984Z,99394.00
2018-07-24T15:34:56.038Z,99393.00
2018-07-24T15:37:25.882Z,99395.00
2018-07-24T15:39:56.028Z,99395.00
2018-07-24T15:42:25.770Z,99389.00
2018-07-24T15:44:55.620Z,99391.00
2018-07-24T15:47:25.670Z,99392.00
2018-07-24T15:49:55.931Z,99387.00
2018-07-24T15:52:25.610Z,99388.00
2018-07-24T15:54:55.449Z,99380.00
2018-07-24T15:57:25.391Z,99382.00
2018-07-24T15:59:55.678Z,99382.00
2018-07-24T16:02:25.697Z,99376.00
2018-07-24T16:04:55.587Z,99376.00
2018-07-24T16:07:25.518Z,99377.00
2018-07-24T16:09:55.871Z,99373.00
2018-07-24T16:12:25.662Z,99372.00
2018-07-24T16:14:55.466Z,99379.00
2018-07-24T16:17:25.419Z,99375.00
2018-07-24T16:19:55.655Z,99376.00
2018-07-24T16:22:25.578Z,99376.00
2018-07-24T16:24:55.515Z,99376.00
2018-07-24T16:27:25.479Z,99378.00
2018-07-24T16:29:55.599Z,99374.00
2018-07-24T16:32:25.540Z,99376.00
2018-07-24T16:34:55.650Z,99376.00
2018-07-24T16:37:25.657Z,99372.00
2018-07-24T16:39:55.726Z,99374.00
2018-07-24T16:42:25.732Z,99376.00
2018-07-24T16:44:55.655Z,99370.00
2018-07-24T16:47:25.684Z,99364.00
2018-07-24T16:49:55.810Z,99365.00
2018-07-24T16:52:25.811Z,99367.00
2018-07-24T16:54:55.778Z,99364.00
2018-07-24T16:57:25.979Z,99367.00
2018-07-24T16:59:56.211Z,99365.00
2018-07-24T17:02:26.524Z,99369.00
2018-07-24T17:04:56.434Z,99370.00
2018-07-24T17:07:26.386Z,99371.00
2018-07-24T17:09:56.605Z,99378.00
2018-07-24T17:12:26.641Z,99373.00
2018-07-24T17:14:56.607Z,99371.00
2018-07-24T17:17:26.549Z,99371.00
2018-07-24T17:19:56.516Z,99366.00
2018-07-24T17:22:26.576Z,99369.00
2018-07-24T17:24:56.487Z,99366.00
2018-07-24T17:27:26.710Z,99377.00
2018-07-24T17:29:56.679Z,99380.00
2018-07-24T17:32:26.850Z,99376.00
2018-07-24T17:34:56.786Z,99384.00
2018-07-24T17:37:26.745Z,99385.00
2018-07-24T17:39:57.758Z,99389.00
2018-07-24T17:42:27.679Z,99400.00
2018-07-24T17:44:57.654Z,99404.00
2018-07-24T17:47:27.702Z,99407.00
2018-07-24T17:49:57.970Z,99410.00
2018-07-24T17:52:27.942Z,99414.00
2018-07-24T17:54:57.654Z,99411.00
2018-07-24T17:57:27.462Z,99413.00
2018-07-24T17:59:57.760Z,99415.00
2018-07-24T18:02:27.699Z,99419.00
2018-07-24T18:04:57.623Z,99423.00
2018-07-24T18:07:27.558Z,99424.00
2018-07-24T18:09:57.717Z,99422.00
2018-07-24T18:12:27.655Z,99421.00
2018-07-24T18:14:57.776Z,99416.00
2018-07-24T18:17:27.705Z,99427.00
2018-07-24T18:19:57.730Z,99423.00
2018-07-24T18:22:27.662Z,99427.00
2018-07-24T18:24:57.341Z,99430.00
2018-07-24T18:27:27.139Z,99433.00
2018-07-24T18:29:57.543Z,99433.00
2018-07-24T18:32:27.482Z,99438.00
2018-07-24T18:34:57.406Z,99437.00
2018-07-24T18:37:27.339Z,99441.00
2018-07-24T18:39:57.573Z,99447.00
2018-07-24T18:42:27.483Z,99443.00
2018-07-24T18:44:57.407Z,99444.00
2018-07-24T18:47:27.352Z,99446.00
2018-07-24T18:49:57.379Z,99449.00
2018-07-24T18:52:27.334Z,99452.00
2018-07-24T18:54:57.370Z,99447.00
2018-07-24T18:57:27.307Z,99451.00
2018-07-24T18:59:57.610Z,99446.00
2018-07-24T19:02:27.502Z,99451.00
2018-07-24T19:04:57.439Z,99452.00
2018-07-24T19:07:27.362Z,99454.00
2018-07-24T19:09:57.358Z,99449.00
2018-07-24T19:12:27.286Z,99454.00
2018-07-24T19:14:57.251Z,99456.00
2018-07-24T19:17:27.321Z,99459.00
2018-07-24T19:19:57.477Z,99462.00
2018-07-24T19:22:27.157Z,99465.00
2018-07-24T19:24:57.025Z,99470.00
2018-07-24T19:27:26.722Z,99469.00
2018-07-24T19:29:56.329Z,99475.00
2018-07-24T19:32:26.460Z,99478.00
2018-07-24T19:34:57.047Z,99478.00
2018-07-24T19:37:26.992Z,99477.00
2018-07-24T19:39:58.711Z,99485.00
2018-07-24T19:42:29.073Z,99492.00
2018-07-24T19:44:59.200Z,99492.00
2018-07-24T19:47:29.274Z,99487.00
2018-07-24T19:50:01.191Z,99487.00
2018-07-24T19:52:31.296Z,99489.00
2018-07-24T19:55:01.593Z,99493.00
2018-07-24T19:57:31.720Z,99498.00
2018-07-24T20:00:02.907Z,99490.00
2018-07-24T20:02:32.985Z,99490.00
2018-07-24T20:05:03.209Z,99496.00
2018-07-24T20:07:33.286Z,99498.00
2018-07-24T20:10:03.640Z,99504.00
2018-07-24T20:12:33.449Z,99505.00
2018-07-24T20:15:03.610Z,99506.00
2018-07-24T20:17:33.680Z,99501.00
2018-07-24T20:20:03.869Z,99502.00
2018-07-24T20:22:33.958Z,99500.00
2018-07-24T20:25:04.654Z,99512.00
2018-07-24T20:27:34.802Z,99506.00
2018-07-24T20:30:06.155Z,99507.00
2018-07-24T20:32:36.165Z,99505.00
2018-07-24T20:35:06.834Z,99506.00
2018-07-24T20:37:37.038Z,99508.00
2018-07-24T20:40:07.139Z,99512.00
2018-07-24T20:42:36.902Z,99508.00
2018-07-24T20:45:06.862Z,99513.00
2018-07-24T20:47:36.800Z,99514.00
2018-07-24T20:50:06.539Z,99513.00
2018-07-24T20:52:36.081Z,99508.00
2018-07-24T20:55:05.875Z,99512.00
2018-07-24T20:57:35.815Z,99504.00
2018-07-24T21:00:06.026Z,99503.00
2018-07-24T21:02:35.978Z,99506.00
2018-07-24T21:05:06.206Z,99505.00
2018-07-24T21:07:36.667Z,99499.00
2018-07-24T21:10:10.756Z,99501.00
2018-07-24T21:12:40.717Z,99500.00
2018-07-24T21:15:10.642Z,99501.00
2018-07-24T21:17:40.622Z,99502.00
2018-07-24T21:20:10.778Z,99505.00
2018-07-24T21:22:40.811Z,99503.00
2018-07-24T21:25:10.811Z,99504.00
2018-07-24T21:27:40.742Z,99505.00
2018-07-24T21:30:11.052Z,99505.00
2018-07-24T21:32:40.966Z,99509.00
2018-07-24T21:35:10.889Z,99506.00
2018-07-24T21:37:41.700Z,99509.00
2018-07-24T21:40:11.631Z,99511.00
2018-07-24T21:42:41.589Z,99507.00
2018-07-24T21:45:11.540Z,99507.00
2018-07-24T21:47:41.463Z,99508.00
2018-07-24T21:50:11.402Z,99507.00
2018-07-24T21:52:41.320Z,99509.00
2018-07-24T21:55:11.247Z,99511.00
2018-07-24T21:57:41.003Z,99505.00
2018-07-24T22:00:12.045Z,99515.00
2018-07-24T22:02:42.142Z,99519.00
2018-07-24T22:05:11.896Z,99515.00
2018-07-24T22:07:41.656Z,99514.00
2018-07-24T22:10:16.932Z,99515.00
2018-07-24T22:12:46.929Z,99512.00
2018-07-24T22:15:21.076Z,99516.00
2018-07-24T22:17:51.133Z,99518.00
2018-07-24T22:20:21.223Z,99522.00
2018-07-24T22:22:51.612Z,99522.00
2018-07-24T22:25:21.330Z,99519.00
2018-07-24T22:27:50.933Z,99517.00
2018-07-24T22:30:20.768Z,99519.00
2018-07-24T22:32:50.711Z,99522.00
2018-07-24T22:35:20.650Z,99525.00
2018-07-24T22:37:50.738Z,99528.00
2018-07-24T22:40:20.667Z,99526.00
2018-07-24T22:42:50.644Z,99528.00
2018-07-24T22:45:20.367Z,99524.00
2018-07-24T22:47:50.201Z,99525.00
2018-07-24T22:50:20.194Z,99532.00
2018-07-24T22:52:50.099Z,99531.00
2018-07-24T22:55:20.043Z,99531.00
2018-07-24T22:57:49.984Z,99532.00
2018-07-24T23:00:19.903Z,99533.00
2018-07-24T23:02:49.837Z,99536.00
2018-07-24T23:05:19.802Z,99540.00
2018-07-24T23:07:49.739Z,99537.00
2018-07-24T23:10:19.706Z,99535.00
2018-07-24T23:12:49.640Z,99540.00
2018-07-24T23:15:19.653Z,99534.00
2018-07-24T23:17:49.553Z,99536.00
2018-07-24T23:20:19.492Z,99541.00
2018-07-24T23:22:49.414Z,99540.00
2018-07-24T23:25:19.390Z,99543.00
2018-07-24T23:27:49.293Z,99540.00
2018-07-24T23:30:19.406Z,99540.00
2018-07-24T23:32:49.331Z,99537.00
2018-07-24T23:35:19.284Z,99542.00
2018-07-24T23:37:49.274Z,99543.00
2018-07-24T23:40:19.243Z,99545.00
2018-07-24T23:42:49.029Z,99539.00
2018-07-24T23:45:18.871Z,99543.00
2018-07-24T23:47:48.807Z,99544.00
2018-07-24T23:50:18.497Z,99543.00
2018-07-24T23:52:48.297Z,99543.00
2018-07-24T23:55:18.255Z,99547.00
2018-07-24T23:57:48.189Z,99545.00
